Time;durP1;ratioP1;P1;durP2;ratioP2;P2;SDS_P1;SDS_P2;PMS_P1;PMS_P2;Temp;Humidity;BMP_temperature;BMP_pressure;BME280_temperature;BME280_humidity;BME280_pressure;Samples;Min_cycle;Max_cycle;Signal;HPM_P1;HPM_P2
2023/03/26 00:01:25;;;;;;;0.30;0.30;;;;;;;18.68;45.80;100405.56;5071696;28;20088;-37
2023/03/26 00:03:56;;;;;;;0.30;0.30;;;;;;;18.67;45.63;100399.22;5076382;28;20066;-37
2023/03/26 00:06:24;;;;;;;0.30;0.30;;;;;;;18.67;45.72;100396.47;5077228;28;20100;-36
2023/03/26 00:08:51;;;;;;;0.20;0.20;;;;;;;18.67;45.86;100403.91;5077698;28;20052;-37
2023/03/26 00:11:19;;;;;;;0.30;0.30;;;;;;;18.66;45.96;100405.84;5114988;28;20039;-36
2023/03/26 00:13:46;;;;;;;0.20;0.20;;;;;;;18.67;45.56;100412.19;5115224;28;20071;-36
2023/03/26 00:16:14;;;;;;;0.30;0.30;;;;;;;18.67;45.80;100415.78;5097140;28;20055;-37
2023/03/26 00:18:41;;;;;;;0.20;0.20;;;;;;;18.68;45.98;100408.31;5096598;28;20043;-36
2023/03/26 00:21:09;;;;;;;0.20;0.20;;;;;;;18.66;45.85;100405.03;5097061;27;20141;-37
2023/03/26 00:23:37;;;;;;;0.20;0.20;;;;;;;18.68;45.63;100406.38;5112290;28;20088;-36
2023/03/26 00:26:04;;;;;;;0.20;0.20;;;;;;;18.67;45.59;100403.91;5115851;27;20074;-36
2023/03/26 00:28:29;;;;;;;0.30;0.30;;;;;;;18.67;45.93;100392.88;5117711;28;20483;-37
2023/03/26 00:31:00;;;;;;;0.30;0.30;;;;;;;18.66;45.86;100397.59;5083463;28;20043;-37
2023/03/26 00:33:26;;;;;;;0.22;0.22;;;;;;;18.66;45.65;100394.81;5098213;28;20249;-36
2023/03/26 00:35:53;;;;;;;0.30;0.30;;;;;;;18.67;45.79;100398.41;5080165;28;20056;-36
2023/03/26 00:38:21;;;;;;;0.20;0.20;;;;;;;18.65;45.75;100387.66;5083835;28;20051;-36
2023/03/26 00:40:49;;;;;;;0.20;0.20;;;;;;;18.66;45.66;100391.25;5100202;28;20314;-37
2023/03/26 00:43:19;;;;;;;;;;;;;;;18.66;45.59;100386.56;5100778;28;20098;-37
2023/03/26 00:45:46;;;;;;;0.20;0.20;;;;;;;18.65;45.66;100390.44;5100597;28;19973;-37
2023/03/26 00:48:13;;;;;;;0.20;0.20;;;;;;;18.66;45.86;100382.97;5118665;28;20468;-37
2023/03/26 00:50:40;;;;;;;0.20;0.20;;;;;;;18.66;45.64;100385.72;5100099;28;20075;-37
2023/03/26 00:53:07;;;;;;;0.20;0.20;;;;;;;18.66;45.93;100383.78;5100509;28;20070;-36
2023/03/26 00:55:34;;;;;;;0.20;0.20;;;;;;;18.66;45.88;100382.97;5118371;28;20086;-36
2023/03/26 00:58:00;;;;;;;0.20;0.20;;;;;;;18.66;45.56;100385.72;5118719;28;20475;-36
2023/03/26 01:00:33;;;;;;;0.30;0.30;;;;;;;18.66;45.92;100375.53;5099832;27;20096;-36
2023/03/26 01:03:01;;;;;;;0.28;0.28;;;;;;;18.66;45.90;100377.47;5117930;28;20531;-37
2023/03/26 01:05:41;;;;;;;0.20;0.20;;;;;;;18.66;45.72;100372.75;5083123;28;20047;-37
2023/03/26 01:08:29;;;;;;;0.30;0.30;;;;;;;18.66;45.84;100371.94;5118283;28;20318;-36
2023/03/26 01:11:06;;;;;;;0.20;0.20;;;;;;;18.66;45.76;100358.16;5084249;28;20051;-37
2023/03/26 01:13:35;;;;;;;0.20;0.20;;;;;;;18.66;45.99;100356.22;5097995;28;20055;-37
2023/03/26 01:16:03;;;;;;;0.30;0.30;;;;;;;18.65;45.75;100354.56;5097832;28;20062;-37
2023/03/26 01:18:33;;;;;;;0.20;0.20;;;;;;;18.65;45.87;100351.81;5097702;28;20047;-36
2023/03/26 01:21:04;;;;;;;0.30;0.30;;;;;;;18.65;45.77;100343.53;5098614;28;20134;-36
2023/03/26 01:23:38;;;;;;;0.30;0.30;;;;;;;18.66;45.77;100330.56;5099844;28;20510;-37
2023/03/26 01:26:12;;;;;;;0.30;0.30;;;;;;;18.65;45.92;100329.75;5103381;28;20055;-36
2023/03/26 01:28:40;;;;;;;0.25;0.25;;;;;;;18.65;45.74;100323.38;5116467;28;20286;-36
2023/03/26 01:31:13;;;;;;;0.20;0.20;;;;;;;18.65;45.67;100320.63;5118109;27;20103;-36
2023/03/26 01:33:46;;;;;;;0.30;0.30;;;;;;;18.66;45.67;100319.53;5099357;28;20402;-36
2023/03/26 01:36:32;;;;;;;0.20;0.20;;;;;;;18.64;45.91;100314.31;5117012;27;20145;-37
2023/03/26 01:39:08;;;;;;;0.20;0.20;;;;;;;18.64;45.77;100314.31;5117362;28;20100;-36
2023/03/26 01:41:44;;;;;;;0.22;0.22;;;;;;;18.65;45.94;100310.44;5116759;28;20166;-37
2023/03/26 01:46:59;;;;;;;0.30;0.30;;;;;;;18.64;45.61;100303.25;5174342;27;20754;-36
2023/03/26 01:49:27;;;;;;;0.20;0.20;;;;;;;18.65;45.76;100302.19;5153478;27;20383;-36
2023/03/26 01:51:54;;;;;;;0.30;0.30;;;;;;;18.65;45.83;100299.41;5134990;27;20073;-36
2023/03/26 01:54:23;;;;;;;0.30;0.30;;;;;;;18.64;45.63;100288.66;5134826;27;20073;-36
2023/03/26 01:57:13;;;;;;;0.20;0.20;;;;;;;18.64;45.88;100283.97;5117899;27;20054;-36
2023/03/26 02:00:10;;;;;;;0.20;0.20;;;;;;;18.64;45.76;100283.16;5138048;27;20467;-37
2023/03/26 02:02:54;;;;;;;0.20;0.20;;;;;;;18.64;45.92;100288.66;5123155;27;20054;-36
2023/03/26 02:05:25;;;;;;;0.30;0.30;;;;;;;18.64;45.91;100280.38;5152653;27;20648;-37
2023/03/26 02:08:10;;;;;;;0.30;0.30;;;;;;;18.64;45.68;100286.72;5134422;27;20111;-36
2023/03/26 02:10:40;;;;;;;0.20;0.20;;;;;;;18.64;45.83;100281.19;5134320;27;20062;-37
2023/03/26 02:13:06;;;;;;;0.25;0.25;;;;;;;18.64;45.97;100275.69;5134673;27;20042;-36
2023/03/26 02:15:32;;;;;;;0.20;0.20;;;;;;;18.63;45.94;100276.81;5152646;27;20114;-36
2023/03/26 02:17:58;;;;;;;0.25;0.25;;;;;;;18.64;45.70;100283.16;5133772;27;20103;-36
2023/03/26 02:20:28;;;;;;;0.30;0.30;;;;;;;18.63;45.85;100274.06;5152673;27;20047;-37
2023/03/26 02:22:56;;;;;;;0.30;0.30;;;;;;;18.64;45.87;100267.41;5134852;27;20099;-36
2023/03/26 02:25:21;;;;;;;0.20;0.20;;;;;;;18.64;45.85;100261.91;5152453;27;20050;-37
2023/03/26 02:27:49;;;;;;;0.30;0.30;;;;;;;18.64;45.98;100261.06;5151770;27;20034;-36
2023/03/26 02:30:17;;;;;;;0.20;0.20;;;;;;;18.63;45.86;100249.22;5151762;27;20053;-37
2023/03/26 02:32:43;;;;;;;;;;;;;;;18.64;45.69;100247.28;5101387;27;20553;-36
2023/03/26 02:35:10;;;;;;;0.30;0.30;;;;;;;18.63;46.00;100240.97;5131733;27;19919;-37
2023/03/26 02:37:37;;;;;;;0.20;0.20;;;;;;;18.63;45.86;100232.69;5131444;27;20043;-37
2023/03/26 02:40:05;;;;;;;0.30;0.30;;;;;;;18.62;45.60;100231.03;5113019;27;20076;-37
2023/03/26 02:42:30;;;;;;;0.20;0.20;;;;;;;18.63;45.98;100227.16;5131360;27;20043;-37
2023/03/26 02:44:56;;;;;;;0.20;0.20;;;;;;;18.63;45.78;100218.88;5111672;28;20050;-37
2023/03/26 02:47:22;;;;;;;0.20;0.20;;;;;;;18.64;45.85;100215.00;5111434;28;20045;-36
2023/03/26 02:49:47;;;;;;;0.30;0.30;;;;;;;18.64;45.94;100209.50;5119684;27;20461;-36
2023/03/26 02:52:15;;;;;;;0.30;0.30;;;;;;;18.63;45.86;100201.53;5132079;27;20078;-37
2023/03/26 02:54:41;;;;;;;0.20;0.20;;;;;;;18.64;45.88;100200.41;5131879;27;20515;-37
2023/03/26 02:57:07;;;;;;;0.30;0.30;;;;;;;18.63;45.90;100201.53;5106748;28;20107;-37
2023/03/26 02:59:32;;;;;;;0.25;0.25;;;;;;;18.64;45.94;100194.88;5099262;28;20047;-37
2023/03/26 03:01:58;;;;;;;0.20;0.20;;;;;;;18.63;45.94;100190.50;5117392;28;20055;-37
2023/03/26 03:04:24;;;;;;;0.25;0.25;;;;;;;18.63;45.66;100179.47;5117992;28;20043;-37
2023/03/26 03:06:56;;;;;;;0.30;0.30;;;;;;;18.63;45.74;100176.72;5117669;28;20107;-37
2023/03/26 03:09:23;;;;;;;0.20;0.20;;;;;;;18.62;45.83;100173.13;5117681;28;20604;-37
2023/03/26 03:11:49;;;;;;;0.30;0.30;;;;;;;18.63;45.90;100165.69;5082076;28;20050;-36
2023/03/26 03:14:15;;;;;;;0.30;0.30;;;;;;;18.62;45.75;100167.63;5117955;28;20039;-36
2023/03/26 03:16:40;;;;;;;0.20;0.20;;;;;;;18.63;45.62;100171.19;5118078;28;20058;-36
2023/03/26 03:19:06;;;;;;;0.30;0.30;;;;;;;18.63;45.62;100157.41;5117292;28;20051;-37
2023/03/26 03:21:32;;;;;;;0.30;0.30;;;;;;;18.63;45.95;100158.22;5117690;28;20050;-36
2023/03/26 03:23:58;;;;;;;0.20;0.20;;;;;;;18.64;45.85;100164.56;5117498;28;20520;-36
2023/03/26 03:26:28;;;;;;;0.20;0.20;;;;;;;18.64;45.89;100161.78;5117527;28;20082;-37
2023/03/26 03:28:55;;;;;;;0.30;0.30;;;;;;;18.63;46.00;100149.13;5115353;28;20051;-36
2023/03/26 03:31:21;;;;;;;0.20;0.20;;;;;;;18.62;45.64;100141.97;5101182;28;20124;-37
2023/03/26 03:33:47;;;;;;;0.25;0.25;;;;;;;18.62;45.81;100147.50;5117484;27;20143;-37
2023/03/26 03:36:13;;;;;;;0.30;0.30;;;;;;;18.62;45.92;100144.75;5117558;27;20067;-37
2023/03/26 03:38:47;;;;;;;0.20;0.20;;;;;;;18.61;45.96;100143.91;5115447;28;20204;-37
2023/03/26 03:41:13;;;;;;;0.25;0.25;;;;;;;18.62;45.97;100139.22;5078305;28;20043;-37
2023/03/26 03:43:40;;;;;;;0.30;0.30;;;;;;;18.62;45.68;100139.22;5099467;28;20040;-36
2023/03/26 03:46:05;;;;;;;0.30;0.30;;;;;;;18.62;45.83;100134.53;5116967;27;20085;-37
2023/03/26 03:48:32;;;;;;;0.30;0.30;;;;;;;18.62;45.77;100128.19;5117111;28;20047;-37
2023/03/26 03:50:57;;;;;;;0.20;0.20;;;;;;;18.62;45.71;100130.94;5116826;28;20078;-36
2023/03/26 03:53:25;;;;;;;0.20;0.20;;;;;;;18.62;45.70;100126.25;5116834;28;20270;-37
2023/03/26 03:55:53;;;;;;;0.20;0.20;;;;;;;18.62;45.74;100129.00;5117107;28;20047;-37
2023/03/26 03:58:22;;;;;;;0.20;0.20;;;;;;;18.62;46.02;100129.00;5099163;28;20045;-36
2023/03/26 04:00:49;;;;;;;0.20;0.20;;;;;;;18.62;45.63;100129.00;5115108;27;20130;-37
2023/03/26 04:03:15;;;;;;;0.20;0.20;;;;;;;18.62;45.69;100122.69;5077879;28;20048;-37
2023/03/26 04:05:42;;;;;;;0.30;0.30;;;;;;;18.62;45.86;100125.44;5096563;28;20048;-37
2023/03/26 04:08:08;;;;;;;0.20;0.20;;;;;;;18.62;45.75;100117.97;5096132;28;20090;-37
2023/03/26 04:10:34;;;;;;;0.20;0.20;;;;;;;18.62;45.68;100117.16;5095984;28;20074;-37
2023/03/26 04:12:59;;;;;;;0.25;0.25;;;;;;;18.62;45.89;100115.22;5096559;28;20055;-36
2023/03/26 04:15:25;;;;;;;0.20;0.20;;;;;;;18.62;45.74;100101.44;5096472;28;20418;-37
2023/03/26 04:17:51;;;;;;;0.20;0.20;;;;;;;18.62;45.77;100103.38;5096978;28;20419;-37
2023/03/26 04:20:18;;;;;;;0.20;0.20;;;;;;;18.61;45.64;100097.03;5096350;28;20050;-36
2023/03/26 04:22:44;;;;;;;0.20;0.20;;;;;;;18.62;45.87;100098.69;5096330;28;20047;-36
2023/03/26 04:25:10;;;;;;;0.30;0.30;;;;;;;18.62;46.00;100082.13;5061185;28;20043;-37
2023/03/26 04:27:37;;;;;;;0.20;0.20;;;;;;;18.61;46.04;100077.75;5078156;28;20079;-36
2023/03/26 04:30:05;;;;;;;0.20;0.20;;;;;;;18.61;45.96;100074.97;5079320;28;20057;-37
2023/03/26 04:32:34;;;;;;;0.28;0.28;;;;;;;18.61;46.03;100072.22;5116178;27;20039;-37
2023/03/26 04:35:02;;;;;;;0.30;0.30;;;;;;;18.61;45.68;100065.84;5098607;28;20051;-36
2023/03/26 04:37:33;;;;;;;;;;;;;;;18.62;45.89;100070.28;5098714;28;20138;-37
2023/03/26 04:40:05;;;;;;;0.20;0.20;;;;;;;18.61;45.91;100060.34;5116985;28;19963;-37
2023/03/26 04:42:32;;;;;;;0.20;0.20;;;;;;;18.62;45.99;100062.00;5082751;28;20074;-36
2023/03/26 04:44:58;;;;;;;0.30;0.30;;;;;;;18.60;45.87;100051.25;5116299;28;20533;-37
2023/03/26 04:47:24;;;;;;;0.30;0.30;;;;;;;18.61;45.96;100044.66;5115949;28;20096;-36
2023/03/26 04:49:50;;;;;;;0.30;0.30;;;;;;;18.61;45.75;100041.03;5097935;28;20055;-37
2023/03/26 04:52:15;;;;;;;0.30;0.30;;;;;;;18.61;46.00;100030.00;5097677;28;20194;-37
2023/03/26 04:54:43;;;;;;;0.20;0.20;;;;;;;18.62;46.02;100031.69;5116264;28;20055;-37
2023/03/26 04:57:18;;;;;;;0.30;0.30;;;;;;;18.61;45.79;100030.84;5097741;28;20051;-37
2023/03/26 04:59:44;;;;;;;0.25;0.25;;;;;;;18.60;45.84;100029.19;5115170;27;20061;-36
2023/03/26 05:02:10;;;;;;;0.30;0.30;;;;;;;18.60;46.01;100031.13;5107489;27;20051;-37
2023/03/26 05:04:39;;;;;;;0.30;0.30;;;;;;;18.60;45.92;100026.44;5077713;28;20089;-37
2023/03/26 05:07:06;;;;;;;0.20;0.20;;;;;;;18.61;45.99;100033.63;5095778;28;20052;-37
2023/03/26 05:09:31;;;;;;;0.20;0.20;;;;;;;18.60;45.61;100026.44;5077581;28;20502;-36
2023/03/26 05:11:57;;;;;;;0.20;0.20;;;;;;;18.61;45.83;100030.84;5077501;28;20043;-37
2023/03/26 05:14:23;;;;;;;0.30;0.30;;;;;;;18.61;46.03;100025.34;5095454;28;20426;-36
2023/03/26 05:16:52;;;;;;;0.20;0.20;;;;;;;18.61;45.90;100021.75;5077282;28;20047;-37
2023/03/26 05:19:17;;;;;;;0.20;0.20;;;;;;;18.61;45.73;100021.75;5095424;28;20044;-36
2023/03/26 05:21:43;;;;;;;0.20;0.20;;;;;;;18.60;45.69;100026.44;5095360;28;20065;-37
2023/03/26 05:24:09;;;;;;;0.20;0.20;;;;;;;18.60;45.92;100015.41;5095383;28;20048;-36
2023/03/26 05:26:35;;;;;;;0.20;0.20;;;;;;;18.61;45.73;100006.03;5095187;28;20058;-36
2023/03/26 05:29:01;;;;;;;0.20;0.20;;;;;;;18.61;46.03;99999.69;5094956;28;20441;-36
2023/03/26 05:31:29;;;;;;;0.30;0.30;;;;;;;18.60;45.68;99996.09;5086754;28;20346;-37
2023/03/26 05:33:56;;;;;;;0.20;0.20;;;;;;;18.60;45.72;99996.09;5097140;28;20051;-37
2023/03/26 05:36:22;;;;;;;0.30;0.30;;;;;;;18.60;45.65;99992.53;5113896;28;20051;-37
2023/03/26 05:38:48;;;;;;;0.30;0.30;;;;;;;18.60;45.84;99987.84;5096716;28;20602;-37
2023/03/26 05:41:15;;;;;;;0.20;0.20;;;;;;;18.60;45.98;99976.81;5076644;28;20627;-37
2023/03/26 05:43:42;;;;;;;0.20;0.20;;;;;;;18.60;45.68;99981.50;5076791;28;20048;-36
2023/03/26 05:46:08;;;;;;;0.20;0.20;;;;;;;18.61;45.68;99974.84;5076368;28;20555;-36
2023/03/26 05:48:34;;;;;;;0.20;0.20;;;;;;;18.60;45.90;99970.47;5108205;28;20051;-36
2023/03/26 05:51:00;;;;;;;0.30;0.30;;;;;;;18.60;45.90;99973.22;5095692;28;20435;-37
2023/03/26 05:53:26;;;;;;;0.30;0.30;;;;;;;18.60;45.94;99959.44;5094959;28;20446;-37
2023/03/26 05:55:56;;;;;;;0.28;0.28;;;;;;;18.60;45.60;99953.94;5075915;28;20124;-37
2023/03/26 05:58:24;;;;;;;0.30;0.30;;;;;;;18.59;45.78;99953.13;5058047;28;20075;-37
2023/03/26 06:01:15;;;;;;;0.20;0.20;;;;;;;18.60;45.86;99949.22;5073010;28;20047;-36
2023/03/26 06:03:43;;;;;;;0.22;0.22;;;;;;;18.60;45.60;99946.47;5079815;28;20047;-37
2023/03/26 06:06:14;;;;;;;0.20;0.20;;;;;;;18.60;45.79;99945.66;5076171;28;20047;-36
2023/03/26 06:08:42;;;;;;;0.28;0.28;;;;;;;18.61;45.75;99936.25;5060360;28;20075;-36
2023/03/26 06:11:11;;;;;;;0.25;0.25;;;;;;;18.59;45.91;99933.81;5059184;28;20044;-36
2023/03/26 06:13:37;;;;;;;0.30;0.30;;;;;;;18.59;45.78;99931.06;5094680;28;20462;-36
2023/03/26 06:16:04;;;;;;;0.30;0.30;;;;;;;18.60;45.75;99931.88;5094255;28;20070;-37
2023/03/26 06:18:30;;;;;;;0.20;0.20;;;;;;;18.60;45.74;99929.09;5094454;28;20071;-37
2023/03/26 06:20:56;;;;;;;0.25;0.25;;;;;;;18.59;45.84;99922.78;5093946;28;20043;-36
2023/03/26 06:23:22;;;;;;;0.30;0.30;;;;;;;18.59;45.69;99916.44;5076214;28;20052;-37
2023/03/26 06:25:48;;;;;;;0.30;0.30;;;;;;;18.59;45.81;99908.19;5075698;28;20453;-36
2023/03/26 06:28:14;;;;;;;0.30;0.30;;;;;;;18.60;45.83;99920.84;5093586;28;20838;-36
2023/03/26 06:30:40;;;;;;;0.30;0.30;;;;;;;18.60;45.86;99912.56;5093809;28;20052;-37
2023/03/26 06:33:06;;;;;;;0.20;0.20;;;;;;;18.59;45.91;99897.97;5072138;28;20087;-36
2023/03/26 06:35:32;;;;;;;0.30;0.30;;;;;;;18.60;45.75;99907.03;5118020;27;20054;-36
2023/03/26 06:37:58;;;;;;;0.30;0.30;;;;;;;18.59;45.82;99900.72;5117747;27;20252;-37
2023/03/26 06:40:24;;;;;;;0.20;0.20;;;;;;;18.59;45.61;99897.97;5103980;27;20044;-36
2023/03/26 06:42:50;;;;;;;0.30;0.30;;;;;;;18.60;46.05;99901.53;5079043;28;20197;-37
2023/03/26 06:45:36;;;;;;;0.20;0.20;;;;;;;18.60;45.79;99896.84;5097618;28;20150;-37
2023/03/26 06:48:02;;;;;;;0.20;0.20;;;;;;;18.59;45.96;99884.16;5079033;28;20088;-36
2023/03/26 06:50:28;;;;;;;0.28;0.28;;;;;;;18.58;45.74;99888.06;5111142;28;20047;-36
2023/03/26 06:52:54;;;;;;;0.20;0.20;;;;;;;18.58;45.83;99882.53;5097355;28;20044;-36
2023/03/26 06:55:20;;;;;;;0.20;0.20;;;;;;;18.58;45.57;99881.72;5079424;28;20048;-36
2023/03/26 06:57:48;;;;;;;0.28;0.28;;;;;;;18.58;45.65;99890.81;5096909;27;20411;-36
2023/03/26 07:00:14;;;;;;;0.20;0.20;;;;;;;18.58;45.72;99890.00;5109263;28;20043;-36
2023/03/26 07:02:39;;;;;;;0.20;0.20;;;;;;;18.56;45.94;99885.59;5117430;28;20585;-37
2023/03/26 07:05:05;;;;;;;0.20;0.20;;;;;;;18.58;45.87;99887.25;5117907;28;20131;-36
2023/03/26 07:07:31;;;;;;;0.20;0.20;;;;;;;18.58;45.91;99885.31;5117818;28;20054;-37
2023/03/26 07:09:57;;;;;;;0.30;0.30;;;;;;;18.58;45.74;99881.72;5117406;28;20423;-37
2023/03/26 07:12:24;;;;;;;0.28;0.28;;;;;;;18.58;45.65;99881.72;5117081;28;20047;-37
2023/03/26 07:14:50;;;;;;;0.20;0.20;;;;;;;18.58;45.65;99881.72;5098867;28;20070;-37
2023/03/26 07:17:15;;;;;;;0.20;0.20;;;;;;;18.57;45.81;99883.66;5117642;28;20054;-36
2023/03/26 07:19:41;;;;;;;0.20;0.20;;;;;;;18.56;45.98;99877.31;5098580;28;20425;-37
2023/03/26 07:22:14;;;;;;;0.20;0.20;;;;;;;18.57;45.73;99875.41;5116970;28;20070;-36
2023/03/26 07:24:40;;;;;;;0.20;0.20;;;;;;;18.56;45.67;99871.78;5117340;28;20054;-37
2023/03/26 07:27:46;;;;;;;0.20;0.20;;;;;;;18.58;45.67;99868.75;5117181;28;20047;-36
2023/03/26 07:30:25;;;;;;;0.20;0.20;;;;;;;18.56;45.65;99865.47;5090226;28;20047;-36
2023/03/26 07:32:59;;;;;;;0.20;0.20;;;;;;;18.57;45.68;99856.09;5117036;27;20206;-37
2023/03/26 07:35:29;;;;;;;0.25;0.25;;;;;;;18.56;45.63;99863.53;5116699;28;20291;-37
2023/03/26 07:38:25;;;;;;;0.30;0.30;;;;;;;18.57;45.79;99858.84;5100857;28;20108;-37
2023/03/26 07:41:14;;;;;;;0.20;0.20;;;;;;;18.56;45.62;99844.22;5088938;28;20370;-36
2023/03/26 07:44:20;;;;;;;0.30;0.30;;;;;;;18.56;45.82;99840.66;5082019;28;20049;-37
2023/03/26 07:46:46;;;;;;;0.30;0.30;;;;;;;18.56;45.85;99844.22;5070789;28;20059;-37
2023/03/26 07:49:12;;;;;;;0.30;0.30;;;;;;;18.56;45.80;99841.47;5097124;28;20044;-36
2023/03/26 07:51:39;;;;;;;0.30;0.30;;;;;;;18.56;45.84;99837.91;5104544;28;20066;-37
2023/03/26 07:54:05;;;;;;;0.20;0.20;;;;;;;18.56;45.58;99837.91;5098432;28;20495;-37
2023/03/26 07:56:52;;;;;;;0.20;0.20;;;;;;;18.57;45.66;99839.56;5098941;28;20047;-36
2023/03/26 08:02:41;;;;;;;0.20;0.20;;;;;;;18.55;45.79;99842.59;5174571;27;20116;-36
2023/03/26 08:05:18;;;;;;;0.30;0.30;;;;;;;18.56;45.65;99832.38;5126754;27;20459;-36
2023/03/26 08:08:07;;;;;;;0.20;0.20;;;;;;;18.55;45.64;99833.50;5153750;27;20042;-36
2023/03/26 08:10:42;;;;;;;0.30;0.30;;;;;;;18.55;45.47;99831.56;5132260;27;20282;-36
2023/03/26 08:13:36;;;;;;;0.30;0.30;;;;;;;18.56;45.86;99830.44;5153715;27;20376;-36
2023/03/26 08:16:07;;;;;;;0.30;0.30;;;;;;;18.55;45.73;99831.56;5123469;27;20074;-36
2023/03/26 08:18:55;;;;;;;0.30;0.30;;;;;;;18.56;45.82;99829.63;5118200;27;20560;-36
2023/03/26 08:21:33;;;;;;;0.20;0.20;;;;;;;18.55;45.63;99830.75;5130834;27;20051;-36
2023/03/26 08:24:21;;;;;;;0.20;0.20;;;;;;;18.54;45.65;99824.41;5132406;27;20062;-36
2023/03/26 08:26:56;;;;;;;0.20;0.20;;;;;;;18.55;45.69;99822.47;5116869;27;20047;-36
2023/03/26 08:30:01;;;;;;;0.20;0.20;;;;;;;18.55;45.75;99820.53;5137152;27;20421;-36
2023/03/26 08:32:27;;;;;;;0.28;0.28;;;;;;;18.55;45.63;99819.72;5110973;27;20050;-36
2023/03/26 08:34:53;;;;;;;0.30;0.30;;;;;;;18.55;45.86;99815.03;5132338;27;20043;-36
2023/03/26 08:37:19;;;;;;;0.20;0.20;;;;;;;18.54;45.73;99818.09;5131380;27;20067;-36
2023/03/26 08:39:45;;;;;;;0.20;0.20;;;;;;;18.54;45.56;99813.41;5131842;27;20046;-37
2023/03/26 08:48:20;;;;;;;0.22;0.22;;;;;;;18.54;45.65;99805.13;5174569;27;20119;-37
2023/03/26 08:51:26;;;;;;;0.30;0.30;;;;;;;18.54;45.74;99807.88;5138647;27;20050;-36
2023/03/26 08:54:15;;;;;;;0.20;0.20;;;;;;;18.54;45.65;99802.38;5127789;27;20046;-36
2023/03/26 08:57:06;;;;;;;0.30;0.30;;;;;;;18.55;45.57;99803.19;5152383;27;20097;-37
2023/03/26 09:02:33;;;;;;;0.30;0.30;;;;;;;18.54;45.81;99802.38;5174696;27;20468;-36
2023/03/26 09:05:19;;;;;;;0.30;0.30;;;;;;;18.53;45.83;99803.50;5137857;27;20046;-37
2023/03/26 09:08:01;;;;;;;0.30;0.30;;;;;;;18.53;45.83;99800.72;5153240;27;20442;-36
2023/03/26 09:11:06;;;;;;;0.30;0.30;;;;;;;18.54;45.79;99788.59;5153301;27;20443;-36
2023/03/26 09:13:43;;;;;;;0.30;0.30;;;;;;;18.53;45.77;99797.16;5126340;27;20065;-37
2023/03/26 09:16:41;;;;;;;0.20;0.20;;;;;;;18.53;45.69;99800.72;5153295;27;20050;-37
2023/03/26 09:19:26;;;;;;;;;;;;;;;18.53;45.52;99797.97;5138176;27;20049;-37
2023/03/26 09:22:24;;;;;;;0.30;0.30;;;;;;;18.53;45.77;99794.41;5131593;27;20187;-37
2023/03/26 09:25:07;;;;;;;0.30;0.30;;;;;;;18.53;45.79;99794.41;5131302;27;20043;-36
2023/03/26 09:27:49;;;;;;;0.20;0.20;;;;;;;18.52;45.87;99785.31;5132434;27;20289;-36
2023/03/26 09:30:47;;;;;;;0.30;0.30;;;;;;;18.53;45.62;99786.94;5130798;27;20078;-36
2023/03/26 09:33:54;;;;;;;0.30;0.30;;;;;;;18.54;45.63;99793.28;5117298;27;20499;-36
2023/03/26 09:36:31;;;;;;;0.20;0.20;;;;;;;18.53;45.88;99786.13;5105960;27;20210;-36
2023/03/26 09:39:22;;;;;;;0.30;0.30;;;;;;;18.53;45.57;99783.38;5115009;27;20039;-36
2023/03/26 09:42:03;;;;;;;0.20;0.20;;;;;;;18.53;45.60;99788.91;5099312;27;20082;-36
2023/03/26 09:44:52;;;;;;;0.20;0.20;;;;;;;18.52;45.71;99778.97;5132409;27;20046;-36
2023/03/26 09:47:33;;;;;;;0.30;0.30;;;;;;;18.53;45.63;99772.34;5131944;27;20047;-37
2023/03/26 09:50:28;;;;;;;0.30;0.30;;;;;;;18.52;45.56;99779.81;5131716;27;20486;-36
2023/03/26 09:53:12;;;;;;;0.30;0.30;;;;;;;18.53;45.56;99772.34;5110548;28;20069;-36
2023/03/26 09:55:47;;;;;;;0.30;0.30;;;;;;;18.53;45.83;99766.84;5124556;27;20082;-37
2023/03/26 09:58:41;;;;;;;0.30;0.30;;;;;;;18.52;45.72;99777.06;5113638;27;20283;-36
2023/03/26 10:04:26;;;;;;;0.30;0.30;;;;;;;18.52;45.74;99765.19;5175201;27;20124;-36
2023/03/26 10:07:02;;;;;;;0.28;0.28;;;;;;;18.51;45.86;99752.53;5138130;27;20054;-36
2023/03/26 10:09:43;;;;;;;0.20;0.20;;;;;;;18.52;45.60;99763.25;5135052;27;20046;-36
2023/03/26 10:12:31;;;;;;;0.30;0.30;;;;;;;18.52;45.82;99760.50;5153214;27;20038;-36
2023/03/26 10:15:23;;;;;;;0.20;0.20;;;;;;;18.52;45.68;99756.91;5138407;27;20066;-36
2023/03/26 10:18:04;;;;;;;0.30;0.30;;;;;;;18.52;45.79;99756.91;5121616;27;20262;-37
2023/03/26 10:21:15;;;;;;;0.30;0.30;;;;;;;18.52;45.86;99756.91;5137293;27;20440;-37
2023/03/26 10:24:05;;;;;;;0.30;0.30;;;;;;;18.52;45.74;99748.63;5138743;27;20057;-36
2023/03/26 10:26:55;;;;;;;0.20;0.20;;;;;;;18.51;45.69;99745.06;5120907;27;20107;-36
2023/03/26 10:30:03;;;;;;;0.20;0.20;;;;;;;18.51;45.80;99744.25;5140230;27;20145;-37
2023/03/26 10:32:43;;;;;;;0.30;0.30;;;;;;;18.50;45.70;99743.44;5122355;27;20135;-37
2023/03/26 10:35:20;;;;;;;0.20;0.20;;;;;;;18.51;45.72;99739.56;5133066;27;20043;-36
2023/03/26 10:38:16;;;;;;;0.20;0.20;;;;;;;18.51;45.70;99736.78;5132737;27;20047;-36
2023/03/26 10:41:03;;;;;;;0.30;0.30;;;;;;;18.51;45.71;99738.75;5119734;27;20124;-36
2023/03/26 10:44:09;;;;;;;0.30;0.30;;;;;;;18.51;45.82;99741.50;5114017;27;20078;-36
2023/03/26 10:46:46;;;;;;;0.30;0.30;;;;;;;18.50;45.54;99735.16;5120141;27;20047;-36
2023/03/26 10:49:39;;;;;;;0.30;0.30;;;;;;;18.51;45.69;99735.97;5128897;27;20048;-36
2023/03/26 10:52:08;;;;;;;0.30;0.30;;;;;;;18.50;45.71;99729.66;5096379;28;20073;-36
2023/03/26 10:54:55;;;;;;;0.20;0.20;;;;;;;18.50;45.69;99724.13;5111716;28;20047;-36
2023/03/26 10:57:35;;;;;;;0.30;0.30;;;;;;;18.51;45.73;99724.94;5111377;27;20061;-37
2023/03/26 11:00:13;;;;;;;0.30;0.30;;;;;;;18.50;45.85;99717.81;5114257;27;20058;-36
2023/03/26 11:02:45;;;;;;;0.20;0.20;;;;;;;18.50;45.52;99720.56;5076079;28;20062;-37
2023/03/26 11:05:25;;;;;;;0.28;0.28;;;;;;;18.50;45.52;99724.13;5093556;27;20043;-37
2023/03/26 11:07:58;;;;;;;0.22;0.22;;;;;;;18.51;45.53;99719.44;5077024;28;20048;-36
2023/03/26 11:10:41;;;;;;;0.20;0.20;;;;;;;18.50;45.73;99726.91;5111111;27;20099;-36
2023/03/26 11:16:10;;;;;;;0.30;0.30;;;;;;;18.50;45.83;99715.06;5175152;27;20492;-36
2023/03/26 11:18:58;;;;;;;0.30;0.30;;;;;;;18.51;45.55;99719.44;5135772;27;20058;-37
2023/03/26 11:21:33;;;;;;;0.20;0.20;;;;;;;18.50;45.60;99717.81;5107876;27;20092;-36
2023/03/26 11:24:27;;;;;;;0.20;0.20;;;;;;;18.50;45.58;99723.31;5153537;27;20050;-36
2023/03/26 11:26:57;;;;;;;0.30;0.30;;;;;;;18.50;45.85;99717.81;5138089;27;20047;-36
2023/03/26 11:29:55;;;;;;;0.20;0.20;;;;;;;18.50;45.46;99712.31;5137402;27;20093;-37
2023/03/26 11:32:26;;;;;;;0.30;0.30;;;;;;;18.50;45.88;99712.31;5139250;27;20467;-36
2023/03/26 11:35:21;;;;;;;0.30;0.30;;;;;;;18.50;45.53;99715.06;5114275;27;20051;-37
2023/03/26 11:38:32;;;;;;;0.25;0.25;;;;;;;18.50;45.65;99710.34;5107654;27;20543;-36
2023/03/26 11:40:59;;;;;;;0.20;0.20;;;;;;;18.49;45.61;99714.25;5117861;27;20047;-36
2023/03/26 11:43:30;;;;;;;0.30;0.30;;;;;;;18.48;45.65;99707.09;5131862;27;20043;-36
2023/03/26 11:45:56;;;;;;;0.30;0.30;;;;;;;18.49;45.52;99711.47;5131958;27;20047;-36
2023/03/26 11:48:26;;;;;;;0.25;0.25;;;;;;;18.50;45.60;99709.53;5132940;27;20066;-37
2023/03/26 11:50:57;;;;;;;0.20;0.20;;;;;;;18.49;45.64;99711.47;5113914;27;20174;-36
2023/03/26 11:53:28;;;;;;;0.20;0.20;;;;;;;18.50;45.69;99713.13;5097289;27;20082;-37
2023/03/26 11:56:01;;;;;;;0.30;0.30;;;;;;;18.49;45.59;99711.47;5110197;28;20106;-36
2023/03/26 11:58:34;;;;;;;0.20;0.20;;;;;;;18.49;45.77;99722.50;5112210;27;20472;-36
2023/03/26 12:01:04;;;;;;;0.30;0.30;;;;;;;18.49;45.73;99710.66;5130755;27;20039;-36
2023/03/26 12:03:30;;;;;;;0.30;0.30;;;;;;;18.48;45.89;99723.66;5113146;27;20518;-37
2023/03/26 12:05:58;;;;;;;0.30;0.30;;;;;;;18.49;45.62;99722.50;5131764;27;20057;-36
2023/03/26 12:08:33;;;;;;;0.30;0.30;;;;;;;18.49;45.78;99716.19;5096066;27;20426;-36
2023/03/26 12:11:02;;;;;;;0.20;0.20;;;;;;;18.49;45.62;99710.66;5119737;27;20388;-36
2023/03/26 12:13:52;;;;;;;0.20;0.20;;;;;;;18.48;45.66;99712.63;5110876;28;20058;-36
2023/03/26 12:16:19;;;;;;;0.30;0.30;;;;;;;18.49;45.58;99717.00;5078797;28;20044;-36
2023/03/26 12:18:58;;;;;;;0.20;0.20;;;;;;;18.50;45.50;99715.06;5111406;28;20044;-37
2023/03/26 12:21:23;;;;;;;0.20;0.20;;;;;;;18.49;46.00;99721.69;5119399;27;20491;-36